createdAt,value
2018-09-29T00:00:20.803Z,10.13
2018-09-29T00:02:49.173Z,9.60
2018-09-29T00:05:17.625Z,9.27
2018-09-29T00:07:46.002Z,9.37
2018-09-29T00:10:14.394Z,10.70
2018-09-29T00:12:42.818Z,11.40
2018-09-29T00:15:11.203Z,9.30
2018-09-29T00:17:39.613Z,10.77
2018-09-29T00:20:08.024Z,10.13
2018-09-29T00:22:36.434Z,8.90
2018-09-29T00:25:04.925Z,8.33
2018-09-29T00:27:33.330Z,9.33
2018-09-29T00:30:01.938Z,9.43
2018-09-29T00:32:30.871Z,9.17
2018-09-29T00:34:59.302Z,10.27
2018-09-29T00:37:27.714Z,9.47
2018-09-29T00:39:56.124Z,11.37
2018-09-29T00:42:24.569Z,11.30
2018-09-29T00:44:52.997Z,11.93
2018-09-29T00:47:21.429Z,10.30
2018-09-29T00:49:49.826Z,10.93
2018-09-29T00:52:18.265Z,12.30
2018-09-29T00:54:46.702Z,9.80
2018-09-29T00:57:15.170Z,10.33
2018-09-29T00:59:43.590Z,10.33
2018-09-29T01:02:12.066Z,9.67
2018-09-29T01:04:40.498Z,11.23
2018-09-29T01:07:08.891Z,11.43
2018-09-29T01:09:37.313Z,10.03
2018-09-29T01:12:05.730Z,10.67
2018-09-29T01:14:34.390Z,11.70
2018-09-29T01:17:02.905Z,10.00
2018-09-29T01:19:31.341Z,10.77
2018-09-29T01:21:59.759Z,12.17
2018-09-29T01:24:29.281Z,9.63
2018-09-29T01:26:57.694Z,10.13
2018-09-29T01:29:26.114Z,10.00
2018-09-29T01:31:54.511Z,10.53
2018-09-29T01:34:22.969Z,11.60
2018-09-29T01:36:51.370Z,10.30
2018-09-29T01:39:19.798Z,9.27
2018-09-29T01:41:48.205Z,11.67
2018-09-29T01:44:16.633Z,11.30
2018-09-29T01:46:45.018Z,9.03
2018-09-29T01:49:13.430Z,10.30
2018-09-29T01:51:41.841Z,8.50
2018-09-29T01:54:10.295Z,11.83
2018-09-29T01:56:38.754Z,8.07
2018-09-29T01:59:07.220Z,10.33
2018-09-29T02:01:35.645Z,7.57
2018-09-29T02:04:04.066Z,8.87
2018-09-29T02:06:32.502Z,9.10
2018-09-29T02:09:00.901Z,9.43
2018-09-29T02:11:29.341Z,6.97
2018-09-29T02:13:57.729Z,7.73
2018-09-29T02:16:26.443Z,7.37
2018-09-29T02:18:54.857Z,9.07
2018-09-29T02:21:23.301Z,8.10
2018-09-29T02:23:51.697Z,7.10
2018-09-29T02:26:20.162Z,6.63
2018-09-29T02:28:48.634Z,10.33
2018-09-29T02:31:17.013Z,8.80
2018-09-29T02:33:45.407Z,6.20
2018-09-29T02:36:13.866Z,8.40
2018-09-29T02:38:42.286Z,5.17
2018-09-29T02:41:11.154Z,6.23
2018-09-29T02:43:39.546Z,7.30
2018-09-29T02:46:07.994Z,6.53
2018-09-29T02:48:36.390Z,5.57
2018-09-29T02:51:04.922Z,7.70
2018-09-29T02:53:33.325Z,9.93
2018-09-29T02:56:01.990Z,6.30
2018-09-29T02:58:30.445Z,6.90
2018-09-29T03:00:58.858Z,6.40
2018-09-29T03:03:27.310Z,7.73
2018-09-29T03:05:55.727Z,8.73
2018-09-29T03:08:24.142Z,10.00
2018-09-29T03:10:52.538Z,6.13
2018-09-29T03:13:21.258Z,5.80
2018-09-29T03:15:49.737Z,5.83
2018-09-29T03:18:18.183Z,7.30
2018-09-29T03:20:46.573Z,6.40
2018-09-29T03:23:15.010Z,5.40
2018-09-29T03:25:43.385Z,6.00
2018-09-29T03:28:11.837Z,7.23
2018-09-29T03:30:40.214Z,7.73
2018-09-29T03:33:08.626Z,7.73
2018-09-29T03:35:37.005Z,5.33
2018-09-29T03:38:05.650Z,5.60
2018-09-29T03:40:34.021Z,5.00
2018-09-29T03:43:02.955Z,6.27
2018-09-29T03:45:31.397Z,6.33
2018-09-29T03:47:59.774Z,5.97
2018-09-29T03:50:28.193Z,4.77
2018-09-29T03:52:56.570Z,5.77
2018-09-29T03:55:25.018Z,5.60
2018-09-29T03:57:53.392Z,4.90
2018-09-29T04:00:21.823Z,6.10
2018-09-29T04:02:50.186Z,5.97
2018-09-29T04:05:18.601Z,4.87
2018-09-29T04:07:46.965Z,7.03
2018-09-29T04:10:15.357Z,6.37
2018-09-29T04:12:43.734Z,6.33
2018-09-29T04:15:12.142Z,7.80
2018-09-29T04:17:40.518Z,7.10
2018-09-29T04:20:08.924Z,7.30
2018-09-29T04:22:37.283Z,7.17
2018-09-29T04:25:05.741Z,7.37
2018-09-29T04:27:34.126Z,8.43
2018-09-29T04:30:02.905Z,5.77
2018-09-29T04:32:31.306Z,7.93
2018-09-29T04:34:59.713Z,7.13
2018-09-29T04:37:28.085Z,6.27
2018-09-29T04:39:56.567Z,7.73
2018-09-29T04:42:24.927Z,6.70
2018-09-29T04:44:53.294Z,5.53
2018-09-29T04:47:21.714Z,6.93
2018-09-29T04:49:50.094Z,7.67
2018-09-29T04:52:18.518Z,5.13
2018-09-29T04:54:46.881Z,6.17
2018-09-29T04:57:15.301Z,6.80
2018-09-29T04:59:43.674Z,6.93
2018-09-29T05:02:12.101Z,5.00
2018-09-29T05:04:40.481Z,5.00
2018-09-29T05:07:08.882Z,5.60
2018-09-29T05:09:37.321Z,7.50
2018-09-29T05:12:05.753Z,4.87
2018-09-29T05:14:34.134Z,4.87
2018-09-29T05:17:02.977Z,6.60
2018-09-29T05:19:31.337Z,5.50
2018-09-29T05:21:59.753Z,5.33
2018-09-29T05:24:28.131Z,5.23
2018-09-29T05:26:56.549Z,5.73
2018-09-29T05:29:24.934Z,6.90
2018-09-29T05:31:53.305Z,6.03
2018-09-29T05:34:21.735Z,9.17
2018-09-29T05:36:50.118Z,5.53
2018-09-29T05:39:19.710Z,6.80
2018-09-29T05:41:48.435Z,6.00
2018-09-29T05:44:17.177Z,6.47
2018-09-29T05:46:46.352Z,5.90
2018-09-29T05:49:15.135Z,7.03
2018-09-29T05:51:44.186Z,5.73
2018-09-29T05:54:13.225Z,5.73
2018-09-29T05:56:42.127Z,9.13
2018-09-29T05:59:13.611Z,6.73
2018-09-29T06:01:42.126Z,7.67
2018-09-29T06:04:10.735Z,4.67
2018-09-29T06:06:39.314Z,9.63
2018-09-29T06:09:09.177Z,6.07
2018-09-29T06:11:40.823Z,3.90
2018-09-29T06:14:15.999Z,5.17
2018-09-29T06:16:44.668Z,4.23
2018-09-29T06:19:13.323Z,4.23
2018-09-29T06:21:43.222Z,5.50
2018-09-29T06:24:11.723Z,6.23
2018-09-29T06:26:40.146Z,7.23
2018-09-29T06:29:08.801Z,5.10
2018-09-29T06:31:37.355Z,6.97
2018-09-29T06:34:06.240Z,5.10
2018-09-29T06:36:55.273Z,3.87
2018-09-29T06:39:23.758Z,6.67
2018-09-29T06:41:52.210Z,5.17
2018-09-29T06:44:20.650Z,5.77
2018-09-29T06:46:49.134Z,8.03
2018-09-29T06:49:17.581Z,5.33
2018-09-29T07:30:06.452Z,6.87
2018-09-29T07:32:34.974Z,6.30
2018-09-29T07:35:03.527Z,5.00
2018-09-29T07:37:32.000Z,7.47
2018-09-29T07:43:03.761Z,5.37
2018-09-29T07:45:32.206Z,6.03
2018-09-29T07:48:00.677Z,7.90
2018-09-29T07:50:38.055Z,6.20
2018-09-29T07:53:06.595Z,6.03
2018-09-29T07:55:35.084Z,5.87
2018-09-29T07:58:03.588Z,4.10
2018-09-29T08:00:32.019Z,5.80
2018-09-29T08:03:01.072Z,4.10
2018-09-29T08:05:29.491Z,6.17
2018-09-29T08:16:58.824Z,4.47
2018-09-29T08:19:28.522Z,5.03
2018-09-29T08:21:58.213Z,4.67
2018-09-29T08:24:27.864Z,6.10
2018-09-29T08:26:57.810Z,5.50
2018-09-29T08:29:27.617Z,6.80
2018-09-29T08:31:57.384Z,4.57
2018-09-29T08:34:27.163Z,6.00
2018-09-29T08:36:56.876Z,7.13
2018-09-29T08:39:29.187Z,6.17
2018-09-29T08:41:59.596Z,8.23
2018-09-29T08:44:29.209Z,5.27
2018-09-29T08:46:58.975Z,8.93
2018-09-29T08:49:29.173Z,5.77
2018-09-29T08:51:58.893Z,10.90
2018-09-29T08:54:28.897Z,5.03
2018-09-29T08:56:58.751Z,6.80
2018-09-29T08:59:28.416Z,3.63
2018-09-29T09:01:58.937Z,4.57
2018-09-29T09:04:28.709Z,6.57
2018-09-29T09:06:58.572Z,7.10
2018-09-29T09:09:28.584Z,4.50
2018-09-29T09:11:58.136Z,8.83
2018-09-29T09:14:34.552Z,4.40
2018-09-29T09:17:04.259Z,6.90
2018-09-29T09:19:34.063Z,6.63
2018-09-29T09:22:03.932Z,5.93
2018-09-29T09:33:10.318Z,6.87
2018-09-29T09:35:38.889Z,8.43
2018-09-29T09:38:07.369Z,8.07
2018-09-29T09:40:35.996Z,7.30
2018-09-29T11:22:16.098Z,8.77
2018-09-29T11:24:46.939Z,8.07
2018-09-29T11:27:15.727Z,10.10
2018-09-29T11:56:57.495Z,7.53
2018-09-29T11:59:26.061Z,9.03
2018-09-29T12:01:54.576Z,9.53
2018-09-29T12:04:22.969Z,8.10
2018-09-29T12:06:51.472Z,7.33
2018-09-29T12:09:19.881Z,8.23
2018-09-29T12:11:48.345Z,9.00
2018-09-29T12:14:16.765Z,7.93
2018-09-29T12:16:45.711Z,7.47
2018-09-29T12:19:14.771Z,7.23
2018-09-29T12:21:44.061Z,10.33
2018-09-29T12:24:12.644Z,8.70
2018-09-29T12:26:41.199Z,6.83
2018-09-29T12:29:09.696Z,6.73
2018-09-29T12:31:38.141Z,6.57
2018-09-29T12:34:06.576Z,7.90
2018-09-29T12:36:35.021Z,5.13
2018-09-29T12:39:12.090Z,7.03
2018-09-29T12:41:40.517Z,10.67
2018-09-29T12:44:09.045Z,7.97
2018-09-29T12:46:37.453Z,7.77
2018-09-29T12:49:06.009Z,7.30
2018-09-29T12:51:34.483Z,6.47
2018-09-29T12:54:02.948Z,6.77
2018-09-29T12:56:31.415Z,7.07
2018-09-29T12:58:59.905Z,6.33
2018-09-29T13:01:28.249Z,6.20
2018-09-29T13:03:56.772Z,9.30
2018-09-29T13:06:25.176Z,5.47
2018-09-29T13:08:53.617Z,4.63
2018-09-29T13:11:22.068Z,7.03
2018-09-29T13:13:50.512Z,8.33
2018-09-29T13:16:18.918Z,10.03
2018-09-29T13:18:47.349Z,5.10
2018-09-29T13:21:15.759Z,4.80
2018-09-29T13:23:44.234Z,7.07
2018-09-29T13:26:12.672Z,5.43
2018-09-29T13:28:41.100Z,8.93
2018-09-29T13:31:09.603Z,8.60
2018-09-29T13:33:38.073Z,6.33
2018-09-29T13:36:06.535Z,7.83
2018-09-29T13:38:34.999Z,6.53
2018-09-29T13:41:04.274Z,5.13
2018-09-29T13:43:32.770Z,4.93
2018-09-29T13:46:01.330Z,4.80
2018-09-29T13:48:29.637Z,4.70
2018-09-29T13:50:58.445Z,6.23
2018-09-29T13:53:26.869Z,5.50
2018-09-29T13:55:55.434Z,6.40
2018-09-29T13:58:24.001Z,5.50
2018-09-29T14:00:53.026Z,5.20
2018-09-29T14:03:21.481Z,4.60
2018-09-29T14:05:50.016Z,3.93
2018-09-29T14:08:18.611Z,6.43
2018-09-29T14:10:47.413Z,5.90
2018-09-29T14:13:15.826Z,6.03
2018-09-29T14:15:44.338Z,5.13
2018-09-29T14:18:12.874Z,5.53
2018-09-29T14:20:41.509Z,5.97
2018-09-29T14:23:10.025Z,5.63
2018-09-29T14:25:38.549Z,4.80
2018-09-29T14:28:07.094Z,5.30
2018-09-29T14:30:35.542Z,5.67
2018-09-29T14:33:04.093Z,7.97
2018-09-29T14:35:32.499Z,6.10
2018-09-29T14:38:01.042Z,5.70
2018-09-29T14:40:29.893Z,7.17
2018-09-29T14:42:58.342Z,5.13
2018-09-29T14:45:26.766Z,6.87
2018-09-29T14:47:55.238Z,6.03
2018-09-29T14:50:23.694Z,3.20
2018-09-29T14:52:52.317Z,5.60
2018-09-29T14:55:21.369Z,5.62
2018-09-29T14:57:49.941Z,4.60
2018-09-29T15:00:18.366Z,6.78
2018-09-29T15:02:46.870Z,6.30
2018-09-29T15:05:16.699Z,4.33
2018-09-29T15:07:45.227Z,4.03
2018-09-29T15:10:13.825Z,5.55
2018-09-29T15:12:42.343Z,6.47
2018-09-29T15:15:10.906Z,5.50
2018-09-29T15:17:39.444Z,6.28
2018-09-29T15:20:07.974Z,4.55
2018-09-29T15:22:38.522Z,5.50
2018-09-29T15:25:07.028Z,6.47
2018-09-29T15:27:35.655Z,6.47
2018-09-29T15:30:04.318Z,6.70
2018-09-29T15:32:32.746Z,6.97
2018-09-29T15:35:01.319Z,4.60
2018-09-29T15:37:29.788Z,6.30
2018-09-29T15:39:58.265Z,5.72
2018-09-29T15:42:26.711Z,7.15
2018-09-29T15:44:55.224Z,8.38
2018-09-29T15:47:23.692Z,5.47
2018-09-29T15:49:52.166Z,4.28
2018-09-29T15:52:21.426Z,5.87
2018-09-29T15:54:49.890Z,6.03
2018-09-29T15:57:18.458Z,4.22
2018-09-29T15:59:46.945Z,5.70
2018-09-29T16:02:15.383Z,5.85
2018-09-29T16:04:44.269Z,3.58
2018-09-29T16:07:13.242Z,4.25
2018-09-29T16:09:42.773Z,5.10
2018-09-29T16:12:11.186Z,3.83
2018-09-29T16:14:39.652Z,6.58
2018-09-29T16:17:08.101Z,4.80
2018-09-29T16:19:36.534Z,5.30
2018-09-29T16:22:05.034Z,5.10
2018-09-29T16:24:33.443Z,4.28
2018-09-29T16:27:01.881Z,5.47
2018-09-29T16:29:30.338Z,5.13
2018-09-29T16:31:58.888Z,4.00
2018-09-29T16:34:27.878Z,4.57
2018-09-29T16:36:56.974Z,6.80
2018-09-29T16:39:25.406Z,6.23
2018-09-29T16:41:53.898Z,8.70
2018-09-29T16:44:22.334Z,4.90
2018-09-29T16:46:50.803Z,6.87
2018-09-29T16:49:19.224Z,5.83
2018-09-29T16:51:47.726Z,3.77
2018-09-29T16:54:16.182Z,4.00
2018-09-29T16:56:44.711Z,5.10
2018-09-29T16:59:13.232Z,7.93
2018-09-29T17:01:41.761Z,6.17
2018-09-29T17:04:10.339Z,13.83
2018-09-29T17:06:38.791Z,9.63
2018-09-29T17:09:11.318Z,10.53
2018-09-29T17:11:40.362Z,25.47
2018-09-29T17:14:08.946Z,93.53
2018-09-29T17:16:37.562Z,52.23
2018-09-29T17:19:06.930Z,20.20
2018-09-29T17:21:36.125Z,10.23
2018-09-29T17:24:04.821Z,15.80
2018-09-29T17:26:33.526Z,7.23
2018-09-29T17:29:02.841Z,11.00
2018-09-29T17:31:31.429Z,9.33
2018-09-29T17:34:00.092Z,15.97
2018-09-29T17:36:28.546Z,22.40
2018-09-29T17:38:57.367Z,25.70
2018-09-29T17:41:27.424Z,6.73
2018-09-29T17:43:55.929Z,11.57
2018-09-29T17:46:24.387Z,6.77
2018-09-29T17:48:52.881Z,6.43
2018-09-29T17:51:21.308Z,6.77
2018-09-29T17:53:49.831Z,5.03
2018-09-29T17:56:18.700Z,5.77
2018-09-29T17:58:47.271Z,4.50
2018-09-29T18:01:15.773Z,3.13
2018-09-29T18:03:44.188Z,5.17
2018-09-29T18:06:13.024Z,4.97
2018-09-29T18:08:41.996Z,6.87
2018-09-29T18:11:10.488Z,5.00
2018-09-29T18:13:39.038Z,7.07
2018-09-29T18:16:07.613Z,5.07
2018-09-29T18:18:36.150Z,3.23
2018-09-29T18:21:05.358Z,4.63
2018-09-29T18:23:33.802Z,3.53
2018-09-29T18:26:02.438Z,4.17
2018-09-29T18:28:30.862Z,3.83
2018-09-29T18:30:59.319Z,5.67
2018-09-29T18:33:27.774Z,4.37
2018-09-29T18:35:56.337Z,2.93
2018-09-29T18:38:24.685Z,4.73
2018-09-29T18:40:53.137Z,4.17
2018-09-29T18:43:21.561Z,6.27
2018-09-29T18:45:50.175Z,4.43
2018-09-29T18:48:18.594Z,4.17
2018-09-29T18:50:47.067Z,7.83
2018-09-29T18:53:16.721Z,3.90
2018-09-29T18:55:45.808Z,4.03
2018-09-29T18:58:14.533Z,3.07
2018-09-29T19:00:43.243Z,2.97
2018-09-29T19:03:11.747Z,5.03
2018-09-29T19:05:40.236Z,2.77
2018-09-29T19:08:09.029Z,4.97
2018-09-29T19:10:37.515Z,5.83
2018-09-29T19:13:06.037Z,3.40
2018-09-29T19:15:34.582Z,2.93
2018-09-29T19:18:03.555Z,4.70
2018-09-29T19:20:32.010Z,6.07
2018-09-29T19:23:00.603Z,3.67
2018-09-29T19:25:29.115Z,3.97
2018-09-29T19:27:57.595Z,4.47
2018-09-29T19:30:26.051Z,4.27
2018-09-29T19:32:54.575Z,3.33
2018-09-29T19:35:23.084Z,4.07
2018-09-29T19:37:51.579Z,3.00
2018-09-29T19:40:20.062Z,3.03
2018-09-29T19:42:48.698Z,3.33
2018-09-29T19:45:17.220Z,3.67
2018-09-29T19:47:45.807Z,5.37
2018-09-29T19:50:14.423Z,4.50
2018-09-29T19:52:43.077Z,2.43
2018-09-29T19:55:11.851Z,2.87
2018-09-29T19:57:42.946Z,4.87
2018-09-29T20:00:11.593Z,3.57
2018-09-29T20:02:40.945Z,5.93
2018-09-29T20:05:10.338Z,3.73
2018-09-29T20:07:39.409Z,4.30
2018-09-29T20:10:11.840Z,3.47
2018-09-29T20:12:40.326Z,2.20
2018-09-29T20:15:08.894Z,4.10
2018-09-29T20:17:37.359Z,2.73
2018-09-29T20:20:06.956Z,6.07
2018-09-29T20:22:35.401Z,3.40
2018-09-29T20:25:04.363Z,3.50
2018-09-29T20:27:32.799Z,3.73
2018-09-29T20:30:01.276Z,5.10
2018-09-29T20:32:29.719Z,3.50
2018-09-29T20:34:58.207Z,4.17
2018-09-29T20:37:26.635Z,3.43
2018-09-29T20:39:55.123Z,4.13
2018-09-29T20:42:23.642Z,3.13
2018-09-29T20:44:52.113Z,4.83
2018-09-29T20:47:20.687Z,4.03
2018-09-29T20:49:49.210Z,5.37
2018-09-29T20:52:17.776Z,4.83
2018-09-29T20:54:46.264Z,6.17
2018-09-29T20:57:14.904Z,4.43
2018-09-29T20:59:43.427Z,3.83
2018-09-29T21:02:13.240Z,5.47
2018-09-29T21:04:41.667Z,4.80
2018-09-29T21:07:10.165Z,4.13
2018-09-29T21:09:38.593Z,4.13
2018-09-29T21:12:07.184Z,5.23
2018-09-29T21:14:35.675Z,5.23
2018-09-29T21:17:05.438Z,4.40
2018-09-29T21:19:34.029Z,3.67
2018-09-29T21:22:02.943Z,3.90
2018-09-29T21:24:31.407Z,4.63
2018-09-29T21:26:59.851Z,3.13
2018-09-29T21:29:28.287Z,2.90
2018-09-29T21:31:56.766Z,3.47
2018-09-29T21:34:25.238Z,3.20
2018-09-29T21:36:53.715Z,3.37
2018-09-29T21:39:22.187Z,4.57
2018-09-29T21:41:50.636Z,3.77
2018-09-29T21:44:19.118Z,4.17
2018-09-29T21:46:47.551Z,4.90
2018-09-29T21:49:16.028Z,4.80
2018-09-29T21:51:44.443Z,4.27
2018-09-29T21:54:12.898Z,2.73
2018-09-29T21:56:41.422Z,2.17
2018-09-29T21:59:09.888Z,4.07
2018-09-29T22:01:38.314Z,4.10
2018-09-29T22:04:06.799Z,3.87
2018-09-29T22:06:35.235Z,3.10
2018-09-29T22:09:04.011Z,3.60
2018-09-29T22:11:32.420Z,6.23
2018-09-29T22:14:00.932Z,4.07
2018-09-29T22:16:29.337Z,3.70
2018-09-29T22:18:57.749Z,4.10
2018-09-29T22:21:26.206Z,3.40
2018-09-29T22:23:54.604Z,6.23
2018-09-29T22:26:23.034Z,5.13
2018-09-29T22:28:51.460Z,4.40
2018-09-29T22:31:19.913Z,3.83
2018-09-29T22:33:48.313Z,3.73
2018-09-29T22:36:16.753Z,5.37
2018-09-29T22:38:45.179Z,4.50
2018-09-29T22:41:13.682Z,3.60
2018-09-29T22:43:44.725Z,5.60
2018-09-29T22:46:13.381Z,4.90
2018-09-29T22:48:41.813Z,3.17
2018-09-29T22:51:10.406Z,4.87
2018-09-29T22:53:38.799Z,3.80
2018-09-29T22:56:07.413Z,4.40
2018-09-29T22:58:35.937Z,2.50
2018-09-29T23:01:04.402Z,4.97
2018-09-29T23:03:32.882Z,4.87
2018-09-29T23:06:01.978Z,3.40
2018-09-29T23:08:30.458Z,4.27
2018-09-29T23:10:58.895Z,5.17
2018-09-29T23:13:27.334Z,3.13
2018-09-29T23:15:55.751Z,4.33
2018-09-29T23:18:24.229Z,3.13
2018-09-29T23:20:52.674Z,3.37
2018-09-29T23:23:21.143Z,3.70
2018-09-29T23:25:49.598Z,3.20
2018-09-29T23:28:18.110Z,4.50
2018-09-29T23:30:46.559Z,3.17
2018-09-29T23:33:15.065Z,4.97
2018-09-29T23:35:43.469Z,3.13
2018-09-29T23:55:28.703Z,2.80
2018-09-29T23:57:57.559Z,5.27
